Time;durP1;ratioP1;P1;durP2;ratioP2;P2;SDS_P1;SDS_P2;PMS_P1;PMS_P2;Temp;Humidity;BMP_temperature;BMP_pressure;BME280_temperature;BME280_humidity;BME280_pressure;Samples;Min_cycle;Max_cycle;Signal;HPM_P1;HPM_P2
2022/11/07 00:01:51;;;;;;;7.53;2.88;;;;;;;10.17;87.20;100670.38;5028363;28;20085;-72
2022/11/07 00:04:18;;;;;;;5.15;2.47;;;;;;;10.16;87.34;100666.03;5021730;28;20046;-72
2022/11/07 00:06:45;;;;;;;4.82;2.60;;;;;;;10.16;87.75;100669.50;5026626;28;20053;-72
2022/11/07 00:09:15;;;;;;;6.07;2.60;;;;;;;10.19;87.55;100663.28;5010359;28;20051;-71
2022/11/07 00:11:42;;;;;;;6.63;2.90;;;;;;;10.22;87.80;100655.28;5016813;28;20782;-71
2022/11/07 00:14:16;;;;;;;4.70;2.35;;;;;;;10.20;87.61;100663.25;5028717;28;20046;-71
2022/11/07 00:16:46;;;;;;;8.05;2.70;;;;;;;10.16;87.51;100666.88;5026763;28;20053;-71
2022/11/07 00:19:17;;;;;;;4.80;2.40;;;;;;;10.17;87.50;100673.88;5031815;28;20045;-71
2022/11/07 00:21:45;;;;;;;6.57;2.83;;;;;;;10.16;87.65;100671.31;5026684;28;20045;-71
2022/11/07 00:24:13;;;;;;;5.65;2.40;;;;;;;10.20;88.07;100675.53;5028952;28;20176;-71
2022/11/07 00:26:40;;;;;;;8.95;2.90;;;;;;;10.22;88.10;100671.97;5019474;28;20516;-71
2022/11/07 00:29:16;;;;;;;6.43;2.55;;;;;;;10.25;87.89;100684.19;5030223;28;20124;-71
2022/11/07 00:31:45;;;;;;;7.93;2.53;;;;;;;10.32;88.02;100682.22;5022168;28;20121;-71
2022/11/07 00:34:13;;;;;;;6.75;2.35;;;;;;;10.35;88.12;100684.72;5028460;28;20034;-71
2022/11/07 00:36:41;;;;;;;6.93;2.63;;;;;;;10.41;88.10;100681.94;5026025;28;20053;-71
2022/11/07 00:39:09;;;;;;;6.00;2.70;;;;;;;10.45;88.03;100680.94;5026617;28;20076;-71
2022/11/07 00:41:37;;;;;;;7.28;2.85;;;;;;;10.49;87.83;100679.94;5030243;28;20046;-72
2022/11/07 00:44:05;;;;;;;7.85;2.60;;;;;;;10.53;87.88;100685.97;5027788;28;20034;-73
2022/11/07 00:46:33;;;;;;;7.63;2.70;;;;;;;10.59;87.72;100692.81;5027068;28;20841;-73
2022/11/07 00:49:00;;;;;;;8.00;2.80;;;;;;;10.61;87.62;100683.06;5025658;28;20041;-72
2022/11/07 00:51:28;;;;;;;7.70;2.70;;;;;;;10.63;87.60;100695.28;5019696;28;20097;-73
2022/11/07 00:53:57;;;;;;;7.32;2.30;;;;;;;10.65;87.49;100698.75;5012355;28;20157;-73
2022/11/07 00:56:24;;;;;;;6.25;2.78;;;;;;;10.64;86.96;100683.84;5017325;28;20050;-72
2022/11/07 00:58:59;;;;;;;8.55;2.42;;;;;;;10.62;87.22;100690.06;5022503;28;20100;-72
2022/11/07 01:01:30;;;;;;;7.72;2.95;;;;;;;10.53;86.96;100681.53;5029311;28;20041;-72
2022/11/07 01:06:45;;;;;;;4.82;2.10;;;;;;;10.37;86.90;100686.47;5015440;28;20054;-70
2022/11/07 01:09:19;;;;;;;5.90;2.50;;;;;;;10.29;86.86;100685.78;5021897;28;20049;-71
2022/11/07 01:11:47;;;;;;;6.13;2.28;;;;;;;10.23;87.35;100696.53;5027774;28;20838;-71
2022/11/07 01:14:19;;;;;;;7.75;2.47;;;;;;;10.21;87.59;100695.72;5033422;28;20045;-70
2022/11/07 01:16:46;;;;;;;9.82;2.58;;;;;;;10.14;87.57;100695.03;5031904;28;20041;-70
2022/11/07 01:19:13;;;;;;;6.07;2.35;;;;;;;10.10;87.74;100703.97;5022013;28;20042;-71
2022/11/07 01:21:42;;;;;;;6.75;2.40;;;;;;;10.05;87.75;100701.47;5022770;28;20042;-71
2022/11/07 01:24:15;;;;;;;8.75;2.65;;;;;;;10.00;87.87;100703.34;5031646;28;20184;-70
2022/11/07 01:26:46;;;;;;;6.95;2.92;;;;;;;9.98;88.04;100696.41;5024235;28;20121;-71
2022/11/07 01:29:16;;;;;;;6.95;2.67;;;;;;;9.93;88.35;100700.03;5018272;28;20042;-70
2022/11/07 01:31:44;;;;;;;7.63;2.50;;;;;;;9.93;88.54;100699.19;5022197;28;20045;-71
2022/11/07 01:34:12;;;;;;;5.88;2.60;;;;;;;9.92;88.50;100714.13;5027800;28;20463;-70
2022/11/07 01:36:39;;;;;;;4.95;2.00;;;;;;;9.89;88.61;100713.34;5028373;28;20097;-70
2022/11/07 01:39:06;;;;;;;6.25;2.47;;;;;;;9.87;88.67;100713.41;5018509;28;20050;-71
2022/11/07 01:41:36;;;;;;;5.85;2.55;;;;;;;9.86;88.76;100711.69;5026871;28;20091;-71
2022/11/07 01:44:06;;;;;;;7.07;2.25;;;;;;;9.88;89.20;100709.00;5028265;28;20048;-72
2022/11/07 01:46:40;;;;;;;6.10;2.20;;;;;;;9.89;89.31;100708.97;5020391;28;20042;-73
2022/11/07 01:49:28;;;;;;;7.05;2.50;;;;;;;9.89;89.07;100715.97;5023023;28;20166;-71
2022/11/07 01:52:00;;;;;;;8.13;2.42;;;;;;;9.87;89.04;100717.81;5025136;28;20041;-71
2022/11/07 01:54:36;;;;;;;10.00;2.85;;;;;;;9.87;89.10;100723.94;5028623;28;20041;-71
2022/11/07 01:57:12;;;;;;;7.47;2.60;;;;;;;9.87;89.34;100717.81;5018712;28;20041;-71
2022/11/07 01:59:40;;;;;;;8.85;2.88;;;;;;;9.85;89.50;100711.72;5028223;28;20042;-71
2022/11/07 02:02:08;;;;;;;4.25;2.35;;;;;;;9.85;89.62;100712.56;5028401;28;20049;-71
2022/11/07 02:04:36;;;;;;;10.55;2.83;;;;;;;9.90;89.74;100721.22;5033140;28;20186;-71
2022/11/07 02:07:10;;;;;;;10.57;2.47;;;;;;;9.94;89.83;100717.56;5029927;28;20042;-71
2022/11/07 02:09:38;;;;;;;7.05;2.47;;;;;;;9.96;89.77;100725.44;5021474;28;20054;-71
2022/11/07 02:12:06;;;;;;;5.28;2.20;;;;;;;9.96;89.81;100733.34;5027889;28;20046;-72
2022/11/07 02:14:33;;;;;;;5.97;2.33;;;;;;;9.93;89.68;100718.47;5035175;28;20042;-72
2022/11/07 02:17:00;;;;;;;9.85;2.95;;;;;;;9.92;89.92;100724.66;5030392;28;20505;-73
2022/11/07 02:19:35;;;;;;;6.15;2.50;;;;;;;9.89;89.70;100722.13;5021431;28;20508;-73
2022/11/07 02:22:11;;;;;;;9.45;2.75;;;;;;;9.87;89.85;100720.47;5025911;28;20046;-73
2022/11/07 02:24:39;;;;;;;6.35;2.35;;;;;;;9.87;90.33;100731.84;5027646;28;20053;-72
2022/11/07 02:27:15;;;;;;;6.97;2.55;;;;;;;9.89;90.24;100730.03;5027643;28;20120;-73
2022/11/07 02:29:49;;;;;;;6.75;2.25;;;;;;;9.93;90.43;100733.44;5017062;28;20042;-72
2022/11/07 02:32:16;;;;;;;7.07;2.53;;;;;;;10.00;90.61;100726.22;5021003;28;20094;-72
2022/11/07 02:34:43;;;;;;;8.43;2.40;;;;;;;10.05;90.76;100722.53;5028508;28;20099;-72
2022/11/07 02:37:25;;;;;;;9.05;2.90;;;;;;;10.14;90.41;100717.88;5030525;28;20042;-72
2022/11/07 02:39:52;;;;;;;7.57;2.28;;;;;;;10.18;90.70;100722.13;5017616;28;20037;-72
2022/11/07 02:42:20;;;;;;;13.90;2.90;;;;;;;10.21;90.42;100719.41;5026853;28;20038;-72
2022/11/07 02:44:54;;;;;;;9.93;2.42;;;;;;;10.20;90.08;100728.22;5028098;28;20058;-72
2022/11/07 02:47:21;;;;;;;7.90;2.10;;;;;;;10.16;90.02;100719.56;5017378;28;20046;-71
2022/11/07 02:49:48;;;;;;;7.03;2.63;;;;;;;10.10;90.01;100711.84;5027617;28;20795;-72
2022/11/07 02:52:15;;;;;;;10.00;2.90;;;;;;;10.10;90.32;100723.25;5017808;28;20038;-72
2022/11/07 02:54:42;;;;;;;7.55;2.33;;;;;;;10.12;90.46;100731.13;5033431;28;20034;-72
2022/11/07 02:57:09;;;;;;;6.38;2.22;;;;;;;10.12;90.18;100741.66;5017734;28;20050;-72
2022/11/07 02:59:37;;;;;;;10.70;2.83;;;;;;;10.13;90.39;100732.81;5023658;28;20034;-72
2022/11/07 03:02:04;;;;;;;9.15;2.72;;;;;;;10.14;90.35;100728.44;5024015;28;20487;-72
2022/11/07 03:04:31;;;;;;;8.98;2.55;;;;;;;10.15;90.15;100727.53;5028968;28;20092;-71
2022/11/07 03:06:58;;;;;;;9.23;2.55;;;;;;;10.12;90.09;100725.84;5030666;28;20045;-72
2022/11/07 03:09:25;;;;;;;10.77;2.40;;;;;;;10.10;90.11;100732.94;5032533;28;20384;-71
2022/11/07 03:11:52;;;;;;;10.38;2.80;;;;;;;10.07;90.03;100728.59;5028476;28;20506;-72
2022/11/07 03:14:19;;;;;;;7.88;2.17;;;;;;;10.04;90.13;100722.56;5031962;28;20451;-72
2022/11/07 03:16:46;;;;;;;6.70;2.15;;;;;;;9.99;90.28;100719.22;5017596;28;20777;-72
2022/11/07 03:19:13;;;;;;;9.55;2.47;;;;;;;9.98;90.47;100714.84;5028542;28;20046;-72
2022/11/07 03:21:40;;;;;;;8.98;2.50;;;;;;;9.96;90.59;100717.53;5030297;28;20896;-72
2022/11/07 03:24:07;;;;;;;8.38;2.13;;;;;;;9.95;90.72;100714.03;5030318;28;20049;-73
2022/11/07 03:26:34;;;;;;;11.80;2.58;;;;;;;9.94;90.78;100720.22;5022090;28;21426;-74
2022/11/07 03:29:02;;;;;;;12.82;3.38;;;;;;;9.94;90.86;100722.00;5032757;28;20057;-73
2022/11/07 03:31:29;;;;;;;10.02;2.70;;;;;;;9.94;90.87;100732.53;5026751;28;20046;-73
2022/11/07 03:33:56;;;;;;;8.77;2.80;;;;;;;9.94;91.09;100722.84;5023442;28;20507;-73
2022/11/07 03:36:23;;;;;;;7.85;2.38;;;;;;;9.94;91.42;100732.53;5031242;28;20042;-73
2022/11/07 03:38:50;;;;;;;8.60;2.42;;;;;;;9.91;91.33;100715.06;5026258;28;20132;-73
2022/11/07 03:41:17;;;;;;;8.43;2.50;;;;;;;9.91;91.08;100724.72;5023617;28;20579;-73
2022/11/07 03:43:45;;;;;;;10.77;2.60;;;;;;;9.87;91.26;100731.84;5032819;28;20046;-71
2022/11/07 03:46:14;;;;;;;9.27;2.55;;;;;;;9.87;91.36;100733.63;5019370;28;20046;-71
2022/11/07 03:48:42;;;;;;;13.35;2.33;;;;;;;9.85;91.44;100736.28;5022414;28;20050;-71
2022/11/07 03:51:09;;;;;;;8.80;2.25;;;;;;;9.83;91.77;100735.44;5016821;28;20577;-71
2022/11/07 03:53:37;;;;;;;8.05;2.65;;;;;;;9.83;91.91;100743.34;5040628;28;20049;-71
2022/11/07 03:56:10;;;;;;;10.77;2.80;;;;;;;9.84;91.97;100734.53;5019351;28;20034;-70
2022/11/07 03:58:37;;;;;;;11.18;2.80;;;;;;;9.84;91.81;100736.34;5031484;28;20046;-71
2022/11/07 04:01:05;;;;;;;12.60;2.45;;;;;;;9.83;92.00;100738.09;5021393;28;20492;-71
2022/11/07 04:03:33;;;;;;;10.40;2.40;;;;;;;9.84;91.95;100733.69;5020930;28;20050;-71
2022/11/07 04:06:00;;;;;;;7.68;2.25;;;;;;;9.87;92.16;100745.00;5021451;28;20504;-71
2022/11/07 04:08:27;;;;;;;8.05;2.20;;;;;;;9.89;92.19;100742.31;5022702;28;20057;-71
2022/11/07 04:10:54;;;;;;;10.70;2.17;;;;;;;9.93;92.37;100738.69;5029312;28;20038;-70
2022/11/07 04:19:06;;;;;;;11.18;2.50;;;;;;;10.04;92.56;100744.50;5023930;28;20074;-71
2022/11/07 04:21:33;;;;;;;10.27;2.63;;;;;;;10.10;92.54;100746.94;5020995;28;20046;-71
2022/11/07 04:24:00;;;;;;;10.93;2.30;;;;;;;10.20;92.49;100744.91;5033481;28;20040;-73
2022/11/07 04:29:13;;;;;;;9.75;2.10;;;;;;;10.33;92.09;100732.22;5032969;28;20100;-72
2022/11/07 04:31:40;;;;;;;7.50;2.00;;;;;;;10.39;92.08;100739.97;5030442;28;20038;-71
2022/11/07 04:34:07;;;;;;;13.23;3.13;;;;;;;10.44;91.64;100737.19;5028109;28;20038;-71
2022/11/07 04:36:35;;;;;;;8.75;2.17;;;;;;;10.49;91.58;100740.56;5022655;28;20043;-71
2022/11/07 04:39:02;;;;;;;13.98;2.65;;;;;;;10.53;91.48;100747.44;5032283;28;20042;-71
2022/11/07 04:41:29;;;;;;;6.90;2.00;;;;;;;10.58;91.25;100736.78;5027056;28;20122;-71
2022/11/07 04:43:56;;;;;;;7.45;2.10;;;;;;;10.60;91.15;100737.56;5019508;28;20038;-71
2022/11/07 04:46:23;;;;;;;8.35;2.05;;;;;;;10.61;90.88;100733.16;5020444;28;20050;-71
2022/11/07 04:48:50;;;;;;;13.15;2.30;;;;;;;10.60;90.62;100749.88;5015539;28;20058;-71
2022/11/07 04:51:21;;;;;;;10.85;2.28;;;;;;;10.56;90.59;100746.50;5033841;28;20041;-71
2022/11/07 04:53:48;;;;;;;10.45;2.17;;;;;;;10.49;90.36;100729.13;5029998;28;20038;-71
2022/11/07 04:56:15;;;;;;;11.23;2.88;;;;;;;10.45;90.25;100738.91;5017379;28;20050;-72
2022/11/07 04:58:42;;;;;;;10.15;2.15;;;;;;;10.41;90.37;100738.16;5030122;28;20743;-72
2022/11/07 05:01:09;;;;;;;10.35;2.10;;;;;;;10.38;90.45;100737.38;5034808;28;20038;-72
2022/11/07 05:03:36;;;;;;;16.60;2.60;;;;;;;10.33;90.46;100748.03;5031436;28;20100;-71
2022/11/07 05:06:13;;;;;;;9.45;2.30;;;;;;;10.32;90.43;100745.47;5030491;28;20050;-71
2022/11/07 05:08:40;;;;;;;8.25;2.10;;;;;;;10.27;90.74;100748.22;5028913;28;20050;-71
2022/11/07 05:11:07;;;;;;;15.73;2.58;;;;;;;10.30;90.75;100749.91;5034359;28;20046;-72
2022/11/07 05:13:34;;;;;;;11.98;2.33;;;;;;;10.33;90.78;100750.66;5030711;28;20042;-71
2022/11/07 05:16:02;;;;;;;9.75;1.98;;;;;;;10.34;90.87;100748.88;5020583;28;20097;-71
2022/11/07 05:18:29;;;;;;;12.23;2.00;;;;;;;10.36;90.64;100754.97;5026128;28;20046;-70
2022/11/07 05:20:56;;;;;;;9.00;2.22;;;;;;;10.34;90.62;100746.25;5036535;28;20181;-70
2022/11/07 05:23:23;;;;;;;9.30;2.00;;;;;;;10.31;90.47;100747.22;5037609;28;20144;-71
2022/11/07 05:25:52;;;;;;;13.45;3.05;;;;;;;10.30;90.50;100748.13;5030203;28;20038;-71
2022/11/07 05:28:23;;;;;;;13.07;2.53;;;;;;;10.29;90.70;100756.09;5015693;28;20086;-71
2022/11/07 05:31:04;;;;;;;10.23;2.42;;;;;;;10.28;90.58;100752.56;5022583;28;20038;-71
2022/11/07 05:33:32;;;;;;;9.95;2.30;;;;;;;10.27;90.70;100750.88;5026885;28;20058;-74
2022/11/07 05:36:15;;;;;;;8.75;1.83;;;;;;;10.31;90.93;100746.38;5025838;28;20057;-73
2022/11/07 05:38:45;;;;;;;11.23;2.10;;;;;;;10.37;90.82;100754.06;5026374;28;20077;-74
2022/11/07 05:41:14;;;;;;;11.32;2.22;;;;;;;10.41;90.76;100764.50;5035498;28;20041;-75
2022/11/07 05:43:42;;;;;;;12.55;2.42;;;;;;;10.46;90.77;100759.09;5021548;28;20073;-76
2022/11/07 05:46:10;;;;;;;11.90;2.17;;;;;;;10.49;90.65;100764.28;5028102;28;20049;-71
2022/11/07 05:48:42;;;;;;;11.02;2.13;;;;;;;10.53;90.43;100765.03;5025117;28;20096;-71
2022/11/07 05:51:09;;;;;;;10.05;1.77;;;;;;;10.55;90.29;100761.44;5023526;28;20042;-70
2022/11/07 05:53:36;;;;;;;14.85;1.90;;;;;;;10.54;90.13;100769.41;5026707;28;20053;-72
2022/11/07 05:56:03;;;;;;;12.70;2.00;;;;;;;10.61;90.34;100772.72;5022535;28;20522;-72
2022/11/07 05:58:30;;;;;;;10.93;1.90;;;;;;;10.68;90.56;100780.34;5024390;28;20034;-72
2022/11/07 06:01:03;;;;;;;12.80;1.80;;;;;;;10.79;90.47;100773.88;5025765;28;20073;-72
2022/11/07 06:03:31;;;;;;;9.55;2.08;;;;;;;10.89;90.59;100777.94;5024353;28;20092;-71
2022/11/07 06:05:58;;;;;;;8.82;2.30;;;;;;;11.00;90.30;100778.44;5029723;28;20100;-71
2022/11/07 06:08:25;;;;;;;9.35;1.80;;;;;;;11.10;90.07;100764.94;5028324;28;20066;-72
2022/11/07 06:10:52;;;;;;;9.23;1.80;;;;;;;11.21;89.94;100767.25;5028463;28;20516;-71
2022/11/07 06:13:21;;;;;;;10.68;2.33;;;;;;;11.26;89.40;100771.44;5028998;28;20042;-72
2022/11/07 06:15:48;;;;;;;12.27;1.70;;;;;;;11.28;88.99;100768.75;5029062;28;20123;-71
2022/11/07 06:18:19;;;;;;;9.90;1.90;;;;;;;11.29;88.27;100762.56;5023446;28;20046;-71
2022/11/07 06:20:46;;;;;;;10.38;1.90;;;;;;;11.26;88.05;100766.16;5041014;28;20042;-71
2022/11/07 06:23:14;;;;;;;6.47;1.83;;;;;;;11.26;87.41;100767.94;5022187;28;20038;-70
2022/11/07 06:25:42;;;;;;;6.28;1.52;;;;;;;11.17;87.14;100771.75;5024215;28;20559;-72
2022/11/07 06:28:12;;;;;;;14.77;2.80;;;;;;;11.10;87.76;100764.94;5026295;28;20050;-71
2022/11/07 06:30:40;;;;;;;11.63;2.15;;;;;;;11.07;87.72;100773.84;5022873;28;20053;-71
2022/11/07 06:33:14;;;;;;;10.27;1.85;;;;;;;11.04;87.58;100760.75;5030540;28;20042;-71
2022/11/07 06:35:43;;;;;;;6.40;2.00;;;;;;;10.95;87.67;100772.47;5031000;28;20046;-70
2022/11/07 06:38:13;;;;;;;14.48;2.20;;;;;;;10.88;87.80;100776.25;5031210;28;20094;-71
2022/11/07 06:40:41;;;;;;;12.82;2.55;;;;;;;10.87;87.98;100780.63;5028885;28;20097;-71
2022/11/07 06:43:16;;;;;;;11.35;2.10;;;;;;;10.88;88.27;100782.38;5031712;28;20046;-71
2022/11/07 06:45:45;;;;;;;10.45;1.92;;;;;;;10.93;88.32;100781.38;5029540;28;20176;-71
2022/11/07 06:48:14;;;;;;;11.85;2.25;;;;;;;10.96;88.46;100783.88;5031326;28;20042;-71
2022/11/07 06:50:42;;;;;;;10.35;1.80;;;;;;;11.00;88.41;100785.50;5032506;28;20042;-71
2022/11/07 06:53:12;;;;;;;14.32;2.28;;;;;;;11.05;88.35;100790.63;5032391;28;20504;-71
2022/11/07 06:55:40;;;;;;;12.30;2.65;;;;;;;11.08;88.11;100786.13;5031851;28;20516;-71
2022/11/07 06:58:08;;;;;;;11.23;2.30;;;;;;;11.12;88.03;100795.66;5032649;28;20050;-71
2022/11/07 07:00:36;;;;;;;8.80;1.90;;;;;;;11.15;87.90;100803.47;5032391;28;20049;-71
2022/11/07 07:03:04;;;;;;;11.15;2.13;;;;;;;11.18;87.58;100790.16;5032890;28;20077;-71
2022/11/07 07:05:33;;;;;;;17.45;2.60;;;;;;;11.20;87.74;100790.09;5032075;28;20568;-71
2022/11/07 07:08:01;;;;;;;9.25;1.73;;;;;;;11.22;87.38;100795.34;5038491;28;20053;-71
2022/11/07 07:10:29;;;;;;;8.07;1.90;;;;;;;11.22;87.18;100796.19;5042949;28;20049;-72
2022/11/07 07:12:56;;;;;;;13.98;2.55;;;;;;;11.23;87.33;100800.56;5033580;28;20881;-72
2022/11/07 07:15:23;;;;;;;9.55;1.88;;;;;;;11.25;87.33;100798.75;5033100;28;20408;-71
2022/11/07 07:17:51;;;;;;;10.82;1.88;;;;;;;11.27;87.23;100801.31;5040821;28;20046;-71
2022/11/07 07:20:18;;;;;;;10.00;1.88;;;;;;;11.28;87.13;100806.56;5035294;28;20038;-71
2022/11/07 07:22:45;;;;;;;9.45;2.33;;;;;;;11.32;87.31;100807.31;5033238;28;20037;-72
2022/11/07 07:25:17;;;;;;;10.38;2.50;;;;;;;11.35;87.27;100812.47;5034703;28;20757;-71
2022/11/07 07:27:44;;;;;;;12.70;2.42;;;;;;;11.39;87.33;100814.13;5031681;28;20046;-72
2022/11/07 07:30:12;;;;;;;9.05;2.20;;;;;;;11.44;87.43;100819.22;5032549;28;20543;-72
2022/11/07 07:32:39;;;;;;;10.00;1.83;;;;;;;11.51;86.92;100812.81;5032662;28;20046;-71
2022/11/07 07:35:08;;;;;;;10.13;2.15;;;;;;;11.56;86.89;100817.94;5033131;28;20038;-71
2022/11/07 07:37:37;;;;;;;8.40;1.52;;;;;;;11.61;86.73;100824.78;5032776;28;20042;-72
2022/11/07 07:40:05;;;;;;;10.90;2.25;;;;;;;11.65;86.63;100828.19;5038337;28;20122;-73
2022/11/07 07:42:32;;;;;;;15.20;2.20;;;;;;;11.71;86.45;100832.38;5034660;28;20041;-71
2022/11/07 07:45:00;;;;;;;13.63;1.92;;;;;;;11.75;86.51;100829.56;5039126;28;20538;-71
2022/11/07 07:47:27;;;;;;;17.80;2.10;;;;;;;11.80;86.15;100832.09;5036868;28;20058;-71
2022/11/07 07:49:54;;;;;;;12.57;2.00;;;;;;;11.84;86.20;100832.84;5048066;28;20038;-72
2022/11/07 07:52:21;;;;;;;16.40;2.28;;;;;;;11.87;85.96;100836.22;5032524;28;20049;-71
2022/11/07 07:54:48;;;;;;;8.68;2.10;;;;;;;11.94;85.47;100832.44;5035348;28;20046;-71
2022/11/07 07:57:15;;;;;;;14.93;2.10;;;;;;;11.97;85.48;100834.09;5033478;28;20495;-71
2022/11/07 07:59:42;;;;;;;13.57;2.45;;;;;;;12.01;85.64;100829.59;5031456;28;20050;-71
2022/11/07 08:02:11;;;;;;;15.60;1.90;;;;;;;12.04;85.62;100835.66;5031868;28;20038;-72
2022/11/07 08:04:41;;;;;;;12.18;2.22;;;;;;;12.13;85.47;100841.50;5032366;28;20097;-71
2022/11/07 08:07:09;;;;;;;17.42;2.05;;;;;;;12.15;85.06;100845.81;5032879;28;20046;-72
2022/11/07 08:09:36;;;;;;;15.85;2.35;;;;;;;12.20;84.65;100848.28;5032350;28;20120;-71
2022/11/07 08:12:07;;;;;;;16.02;2.08;;;;;;;12.21;84.46;100836.78;5032378;28;20047;-71
2022/11/07 08:14:34;;;;;;;10.25;1.90;;;;;;;12.29;84.43;100841.81;5030199;28;20507;-72
2022/11/07 08:17:02;;;;;;;12.32;2.10;;;;;;;12.36;84.14;100849.44;5031947;28;20092;-71
2022/11/07 08:19:29;;;;;;;12.10;3.13;;;;;;;12.45;83.87;100850.88;5032675;28;20045;-72
2022/11/07 08:21:56;;;;;;;16.85;2.30;;;;;;;12.54;84.17;100847.88;5032846;28;20042;-72
2022/11/07 08:24:23;;;;;;;13.32;1.98;;;;;;;12.62;83.97;100846.69;5030751;28;20034;-71
2022/11/07 08:26:50;;;;;;;12.25;1.80;;;;;;;12.66;83.77;100851.84;5032350;28;20052;-71
2022/11/07 08:29:17;;;;;;;8.57;1.90;;;;;;;12.72;83.64;100858.66;5032315;28;20042;-71
2022/11/07 08:31:44;;;;;;;12.10;1.67;;;;;;;12.78;83.45;100858.44;5031633;28;20120;-72
2022/11/07 08:34:11;;;;;;;9.23;2.05;;;;;;;12.82;83.33;100854.72;5032375;28;20528;-71
2022/11/07 08:36:38;;;;;;;13.55;1.98;;;;;;;12.89;83.12;100860.63;5032382;28;20042;-71
2022/11/07 08:39:05;;;;;;;7.82;1.60;;;;;;;12.95;83.03;100854.25;5030999;28;20049;-71
2022/11/07 08:41:32;;;;;;;10.40;1.83;;;;;;;13.04;82.42;100859.16;5032468;28;20489;-72
2022/11/07 08:44:00;;;;;;;14.77;2.28;;;;;;;13.10;82.32;100844.81;5032591;28;20041;-72
2022/11/07 08:46:28;;;;;;;9.98;1.77;;;;;;;13.16;82.11;100857.81;5031759;28;20821;-71
2022/11/07 08:48:55;;;;;;;9.82;1.80;;;;;;;13.19;82.16;100855.91;5032168;28;20041;-72
2022/11/07 08:51:22;;;;;;;11.55;2.10;;;;;;;13.24;81.75;100852.19;5031047;28;20038;-72
2022/11/07 08:53:49;;;;;;;12.63;1.85;;;;;;;13.29;81.67;100864.31;5030103;28;20050;-72
2022/11/07 08:56:16;;;;;;;10.27;2.00;;;;;;;13.35;81.45;100864.06;5031271;28;20038;-71
2022/11/07 08:58:43;;;;;;;13.60;2.00;;;;;;;13.44;80.74;100867.28;5031724;28;20152;-71
2022/11/07 09:01:12;;;;;;;7.72;1.65;;;;;;;13.58;80.99;100879.94;5031573;28;20064;-72
2022/11/07 09:03:39;;;;;;;10.60;1.73;;;;;;;13.66;80.85;100875.19;5031835;28;20096;-71
2022/11/07 09:06:16;;;;;;;9.57;1.80;;;;;;;13.75;80.60;100889.84;5032084;28;20048;-72
2022/11/07 09:08:44;;;;;;;8.93;2.00;;;;;;;13.81;80.51;100897.50;5030614;28;20471;-72
2022/11/07 09:11:14;;;;;;;7.82;1.63;;;;;;;13.88;80.26;100893.69;5032004;28;20042;-72
2022/11/07 09:13:41;;;;;;;11.18;2.00;;;;;;;13.89;80.42;100892.72;5032286;28;20041;-71
2022/11/07 09:16:16;;;;;;;17.33;2.08;;;;;;;13.92;80.21;100897.06;5032653;28;20050;-71
2022/11/07 09:18:45;;;;;;;12.93;2.20;;;;;;;13.88;80.19;100904.28;5032646;28;20583;-71
2022/11/07 09:21:13;;;;;;;11.18;2.20;;;;;;;13.83;80.12;100900.97;5032597;28;20045;-71
2022/11/07 09:23:48;;;;;;;10.27;2.10;;;;;;;13.79;80.60;100907.31;5031720;28;20311;-72
2022/11/07 09:26:15;;;;;;;10.88;2.05;;;;;;;13.77;80.43;100907.38;5032239;28;20773;-72
2022/11/07 09:28:42;;;;;;;11.10;2.30;;;;;;;13.76;80.17;100908.31;5032433;28;20129;-72
2022/11/07 09:31:16;;;;;;;12.07;2.20;;;;;;;13.76;79.93;100908.31;5032116;28;20157;-71
2022/11/07 09:33:43;;;;;;;10.55;2.15;;;;;;;13.74;79.71;100911.94;5032336;28;20042;-72
2022/11/07 09:36:11;;;;;;;10.00;2.10;;;;;;;13.74;79.97;100917.25;5032233;28;20548;-71
2022/11/07 09:38:39;;;;;;;11.40;2.17;;;;;;;13.73;80.24;100921.72;5029462;28;20053;-72
2022/11/07 09:41:46;;;;;;;13.95;2.42;;;;;;;13.75;80.16;100929.56;5031012;28;20041;-72
2022/11/07 09:44:44;;;;;;;9.45;2.15;;;;;;;13.80;80.50;100932.88;5029807;28;20061;-72
2022/11/07 09:47:22;;;;;;;8.73;2.00;;;;;;;13.88;80.27;100925.50;5031322;28;20205;-71
2022/11/07 09:49:56;;;;;;;10.35;1.77;;;;;;;13.96;80.56;100943.69;5031765;28;20451;-72
2022/11/07 09:52:57;;;;;;;13.32;1.75;;;;;;;14.01;79.97;100930.25;5032060;28;20540;-71
2022/11/07 09:55:30;;;;;;;10.18;2.20;;;;;;;14.03;80.16;100936.34;5029557;28;20034;-71
2022/11/07 09:58:10;;;;;;;8.93;1.85;;;;;;;14.09;79.92;100931.63;5012200;28;20074;-72
2022/11/07 10:00:39;;;;;;;12.20;1.77;;;;;;;14.14;79.67;100940.22;5012081;28;20050;-72
2022/11/07 10:03:08;;;;;;;8.55;2.10;;;;;;;14.17;79.74;100936.63;5017940;28;20101;-71
2022/11/07 10:06:05;;;;;;;15.73;2.17;;;;;;;14.20;79.51;100930.31;5035460;28;20045;-71
2022/11/07 10:08:34;;;;;;;8.05;1.55;;;;;;;14.16;79.08;100937.53;5034769;28;20062;-71
2022/11/07 10:11:16;;;;;;;11.85;1.92;;;;;;;14.19;79.37;100942.72;5033804;28;20116;-72
2022/11/07 10:14:45;;;;;;;14.27;2.47;;;;;;;14.19;79.37;100934.75;5034862;28;20149;-72
2022/11/07 10:17:54;;;;;;;8.52;1.85;;;;;;;14.25;79.14;100938.91;5031678;28;20136;-72
2022/11/07 10:20:49;;;;;;;9.00;2.05;;;;;;;14.34;78.89;100938.53;5034117;28;20057;-71
2022/11/07 10:23:36;;;;;;;9.13;1.70;;;;;;;14.52;78.68;100934.16;5033922;28;20038;-71
2022/11/07 10:26:11;;;;;;;9.57;1.80;;;;;;;14.71;78.45;100936.00;5044819;28;20092;-71
2022/11/07 10:28:57;;;;;;;11.50;1.73;;;;;;;14.82;77.88;100933.72;5033408;28;20062;-71
2022/11/07 10:31:34;;;;;;;9.00;1.85;;;;;;;15.02;77.56;100946.06;5034744;28;20050;-71
2022/11/07 10:34:13;;;;;;;7.82;1.83;;;;;;;15.17;76.88;100951.56;5034160;28;20030;-71
2022/11/07 10:36:40;;;;;;;8.32;1.80;;;;;;;15.24;76.31;100946.81;5029286;28;20049;-71
2022/11/07 10:39:15;;;;;;;9.93;1.73;;;;;;;15.25;75.82;100951.19;5053696;28;20100;-71
2022/11/07 10:42:08;;;;;;;9.45;1.80;;;;;;;15.14;75.92;100949.06;5054271;28;20587;-71
2022/11/07 10:44:40;;;;;;;11.45;2.30;;;;;;;15.06;75.98;100960.03;5050058;28;20052;-71
2022/11/07 10:47:20;;;;;;;12.20;1.75;;;;;;;14.96;76.45;100961.41;5034147;28;20042;-71
2022/11/07 10:50:15;;;;;;;10.43;1.88;;;;;;;14.86;76.42;100958.31;5033942;28;20054;-72
2022/11/07 10:52:57;;;;;;;9.70;1.80;;;;;;;14.77;76.66;100959.63;5037615;28;20050;-71
2022/11/07 10:55:26;;;;;;;9.98;1.70;;;;;;;14.68;76.74;100952.06;5039729;28;20088;-71
2022/11/07 10:58:05;;;;;;;13.65;1.88;;;;;;;14.66;76.47;100953.91;5040641;28;20045;-71
2022/11/07 11:00:38;;;;;;;12.40;1.80;;;;;;;14.66;76.87;100952.09;5038086;28;20121;-71
2022/11/07 11:03:27;;;;;;;10.10;2.15;;;;;;;14.67;76.93;100955.66;5021943;28;20038;-71
2022/11/07 11:06:30;;;;;;;12.77;1.83;;;;;;;14.64;76.60;100961.06;5033928;28;20149;-71
2022/11/07 11:09:10;;;;;;;11.88;2.20;;;;;;;14.68;77.15;100968.00;5033126;28;20263;-71
2022/11/07 11:11:38;;;;;;;18.25;2.10;;;;;;;14.75;76.54;100951.69;5038004;28;20530;-71
2022/11/07 11:14:12;;;;;;;10.18;1.95;;;;;;;14.85;76.22;100962.78;5048166;28;20045;-71
2022/11/07 11:16:42;;;;;;;12.38;2.28;;;;;;;14.97;76.39;100949.88;5053506;28;20053;-70
2022/11/07 11:19:27;;;;;;;9.88;1.70;;;;;;;15.14;75.58;100949.91;5053206;28;20107;-71
2022/11/07 11:21:57;;;;;;;17.42;2.50;;;;;;;15.22;75.67;100952.22;5045339;28;20045;-71
2022/11/07 11:24:38;;;;;;;14.57;2.03;;;;;;;15.26;75.00;100952.91;5039614;28;20049;-71
2022/11/07 11:27:20;;;;;;;7.68;1.80;;;;;;;15.27;75.54;100939.56;5029497;28;20056;-71
2022/11/07 11:29:59;;;;;;;12.80;2.30;;;;;;;15.25;74.94;100941.44;5027507;28;20597;-71
2022/11/07 11:32:35;;;;;;;12.40;1.75;;;;;;;15.23;74.58;100938.00;5044375;28;20041;-72
2022/11/07 11:35:39;;;;;;;9.88;1.67;;;;;;;15.26;74.33;100942.28;5033319;28;20048;-70
2022/11/07 11:38:25;;;;;;;8.57;1.90;;;;;;;15.28;74.38;100943.09;5013696;28;20042;-70
2022/11/07 11:41:00;;;;;;;8.85;1.80;;;;;;;15.32;74.55;100934.91;5040287;28;20136;-70
2022/11/07 11:43:51;;;;;;;9.45;1.85;;;;;;;15.33;74.68;100941.94;5027675;28;20038;-70
2022/11/07 11:46:47;;;;;;;12.05;1.90;;;;;;;15.47;74.28;100920.00;5033665;28;20046;-71
2022/11/07 11:49:54;;;;;;;11.27;1.80;;;;;;;15.57;73.10;100938.97;5032970;28;20038;-71
2022/11/07 11:52:24;;;;;;;9.05;1.65;;;;;;;15.56;72.43;100928.44;5029789;28;20065;-70